Airfield :
LOGIN :

Register | Disclaimer

   EN    FR    IT 

 










Legend :    VFR   Marginal VFR   IFR   Intensive IFR   Very Intensive IFR
Visi :
Ceiling :
>= 8 km
>= 3000ft
5 to 8 km
1000 to 3000 ft
1500m to 5 km
500 to 1000 ft
800 to 1500m
200 to 500 ft
< 800m
< 200 ft
Symbols :   Thunderstorms  Fog  Heavy snow  Heavy precipitations  Wind > 20 kt
SIGMETs :     Misc.  Thunderstorms  Icing  Turbulence  Mountain Waves  Volcanic Ashes






- Airport Elevation : 400 ft
- IATA code : BNX


LQBK - Banja Luka

CURRENT METAR :
  • 290800Z 30008KT 9999 FEW027 SCT047 14/08 Q1022 NOSIG

EXPIRED METARs :
  • 290730Z 31006KT 9999 FEW027 SCT047 14/09 Q1022 NOSIG
  • 290700Z 32006KT 9999 SCT047 13/08 Q1022 NOSIG
  • 290630Z 31008KT 9999 SCT047 13/08 Q1022 NOSIG
  • 290600Z 30006KT 9999 SCT047 13/08 Q1022 NOSIG
  • 290530Z 29006KT CAVOK 12/10 Q1022 NOSIG

TAF TAF LQBK
Valid from the 29 at 06:00 until the 30 at 06:00 UTC


290500Z 2906/3006 28006KT 9999 SCT040 TX18/2914Z TN13/2906Z
PROB40
TEMPO 2908/2912 35015KT 4000 SHRA FEW033TCU BKN040
PROB30
TEMPO 2912/2918 VRB15KT 3000 TSRA FEW030CB BKN040
TEMPO 3003/3006 34012KT



MET'MAP, your aeronautical weather chart ! - Copyright ORBIFLY December 2007 - Disclaimer

ORBIFLY MET'MAP TEAM :

Programming & Development : Alexandra Zaïnal
Concept & original design : Baudouin d'Aumeries
Assistance for programming : Marc-Olivier Méhu
Technical & hardware support : Manuel Goepfert

Contact : metmap@orbifly.com




SOURCES & CREDITS :

   NOAA